Karin S — V2BM6 — position and weather

sailwx.info

Track history (hours):
 
Tides and Currents Weather Stations Pressure Air Temp Water Temp Dewpoint Dewpoint Depression Visibility Wind Speed Wind Dir Waves Ship Positions

Karin S

Last reported at 2015-Feb-19 04:33 UTC. Time now 2015-Feb-28 06:58 UTC.
Position N 38°19' E 001°12'.
Warning: this ship's position is 9 days out of date.

Length 148 m; draft 8.9 m.

Type: Ship. MMSI: 304871000.

Date/timePositionNaut miles runAvg speedWind from/ knotsBaromVisibWave heightAir tempDewpointWater temp
2015-Feb-19 04:33N 38°19' E 001°12'8812.0
2015-Feb-18 21:12N 39°22' W 000°08'711.4
2015-Feb-18 20:34N 39°25' W 000°17'2 2.5
2015-Feb-18 19:33N 39°26' W 000°20'0 0.0
2015-Feb-18 18:32N 39°26' W 000°20'0 0.0
2015-Feb-18 17:05N 39°26' W 000°20'0 0.0
2015-Feb-18 16:23N 39°26' W 000°20'0 0.0
2015-Feb-18 15:23N 39°26' W 000°20'0 0.0
2015-Feb-18 14:23N 39°26' W 000°20'0 0.0
2015-Feb-18 13:23N 39°26' W 000°20'0 0.0
2015-Feb-18 12:31N 39°26' W 000°20'0 0.4
2015-Feb-18 11:34N 39°26' W 000°19'1 0.7
2015-Feb-18 10:32N 39°27' W 000°19'0 0.0
2015-Feb-18 09:32N 39°27' W 000°19'0 0.0
2015-Feb-18 08:32N 39°27' W 000°19'0 0.0
2015-Feb-18 07:32N 39°27' W 000°19'0 0.0
2015-Feb-18 06:32N 39°27' W 000°19'0 0.0
2015-Feb-18 05:32N 39°27' W 000°19'0 0.0
2015-Feb-18 04:32N 39°27' W 000°19'0 0.0
2015-Feb-18 03:29N 39°27' W 000°19'0 0.0
2015-Feb-18 02:32N 39°27' W 000°19'0 0.0
2015-Feb-18 01:29N 39°27' W 000°19'0 0.0
2015-Feb-18 00:29N 39°27' W 000°19'0 0.0
2015-Feb-17 23:32N 39°27' W 000°19'0 0.0
2015-Feb-17 22:32N 39°27' W 000°19'0 0.0
2015-Feb-17 21:32N 39°27' W 000°19'0 0.0
2015-Feb-17 20:32N 39°27' W 000°19'0 0.0
2015-Feb-17 19:32N 39°27' W 000°19'0 0.0
2015-Feb-17 17:32N 39°27' W 000°19'0 0.0
2015-Feb-17 16:32N 39°27' W 000°19'0 0.0
2015-Feb-17 15:32N 39°27' W 000°19'0 0.0
2015-Feb-17 14:32N 39°27' W 000°19'0 0.0
2015-Feb-17 13:32N 39°27' W 000°19'0 0.0
2015-Feb-17 12:32N 39°27' W 000°19'0 0.0
2015-Feb-17 11:32N 39°27' W 000°19'0 0.0
2015-Feb-17 10:32N 39°27' W 000°19'0 0.0
2015-Feb-17 09:32N 39°27' W 000°19'0 0.0
2015-Feb-17 08:32N 39°27' W 000°19'0 0.0
2015-Feb-17 07:32N 39°27' W 000°19'0 0.0
2015-Feb-17 06:33N 39°27' W 000°19'0 0.0
2015-Feb-17 05:33N 39°27' W 000°19'0 0.0
2015-Feb-17 04:33N 39°27' W 000°19'0 0.0
2015-Feb-17 03:33N 39°27' W 000°19'0 0.0
2015-Feb-17 02:33N 39°27' W 000°19'0 0.0
2015-Feb-17 01:33N 39°27' W 000°19'0 0.0
2015-Feb-17 00:28N 39°27' W 000°19'0 0.5
2015-Feb-16 23:33N 39°26' W 000°19'1 0.5
2015-Feb-16 22:33N 39°26' W 000°20'0 0.0
2015-Feb-16 21:33N 39°26' W 000°20'0 0.0
2015-Feb-16 20:33N 39°26' W 000°20'0 0.0
2015-Feb-16 19:33N 39°26' W 000°20'0 0.0
2015-Feb-16 18:30N 39°26' W 000°20'0 0.0
2015-Feb-16 17:30N 39°26' W 000°20'0 0.0
2015-Feb-16 16:33N 39°26' W 000°20'0 0.0
2015-Feb-16 15:33N 39°26' W 000°20'0 0.0
2015-Feb-16 14:33N 39°26' W 000°20'0 0.0
2015-Feb-16 13:33N 39°26' W 000°20'0 0.0
2015-Feb-16 12:33N 39°26' W 000°20'0 0.0
2015-Feb-16 11:32N 39°26' W 000°20'0 0.0
2015-Feb-16 10:32N 39°26' W 000°20'0 0.0
2015-Feb-16 09:32N 39°26' W 000°20'0 0.0
2015-Feb-16 08:32N 39°26' W 000°20'0 0.0
2015-Feb-16 07:31N 39°26' W 000°20'0 0.0
2015-Feb-16 06:32N 39°26' W 000°20'0 0.0
2015-Feb-16 05:32N 39°26' W 000°20'0 0.0
2015-Feb-16 04:34N 39°26' W 000°20'0 0.0
2015-Feb-16 03:33N 39°26' W 000°20'0 0.0
2015-Feb-16 02:34N 39°26' W 000°20'0 0.0
2015-Feb-16 01:34N 39°26' W 000°20'0 0.0
2015-Feb-16 00:31N 39°26' W 000°20'0 0.0
2015-Feb-15 23:33N 39°26' W 000°20'0 0.0
2015-Feb-15 22:32N 39°26' W 000°20'0 0.0
2015-Feb-15 21:29N 39°26' W 000°20'0 0.0
2015-Feb-15 20:29N 39°26' W 000°20'0 0.0
2015-Feb-15 19:33N 39°26' W 000°20'10 8.8
2015-Feb-15 18:22N 39°25' W 000°06'4 2.1
2015-Feb-15 16:33N 39°25' W 000°02'1 0.7
2015-Feb-15 15:33N 39°24' W 000°02'3 0.7
2015-Feb-15 11:33N 39°22' W 000°05'  
2015-Feb-12 14:30N 36°46' E 003°04'0 0.0
2015-Feb-12 13:33N 36°46' E 003°04'0 0.0
2015-Feb-12 10:24N 36°46' E 003°04'0 0.0
2015-Feb-12 09:30N 36°46' E 003°04'0 0.0
2015-Feb-11 21:07N 36°46' E 003°04'0 0.0
2015-Feb-10 20:13N 36°46' E 003°04'  
Track history (hours):
 
Tides and Currents Weather Stations Pressure Air Temp Water Temp Dewpoint Dewpoint Depression Visibility Wind Speed Wind Dir Waves Ship Positions

Karin S

Last reported at 2015-Feb-19 04:33 UTC. Time now 2015-Feb-28 06:58 UTC.
Position N 38°19' E 001°12'.
Warning: this ship's position is 9 days out of date.

Length 148 m; draft 8.9 m.

Type: Ship. MMSI: 304871000.

Date/timePositionNaut miles runAvg speedWind from/ knotsBaromVisibWave heightAir tempDewpointWater temp
2015-Feb-19 04:33N 38°19' E 001°12'8812.0
2015-Feb-18 21:12N 39°22' W 000°08'711.4
2015-Feb-18 20:34N 39°25' W 000°17'2 2.5
2015-Feb-18 19:33N 39°26' W 000°20'0 0.0
2015-Feb-18 18:32N 39°26' W 000°20'0 0.0
2015-Feb-18 17:05N 39°26' W 000°20'0 0.0
2015-Feb-18 16:23N 39°26' W 000°20'0 0.0
2015-Feb-18 15:23N 39°26' W 000°20'0 0.0
2015-Feb-18 14:23N 39°26' W 000°20'0 0.0
2015-Feb-18 13:23N 39°26' W 000°20'0 0.0
2015-Feb-18 12:31N 39°26' W 000°20'0 0.4
2015-Feb-18 11:34N 39°26' W 000°19'1 0.7
2015-Feb-18 10:32N 39°27' W 000°19'0 0.0
2015-Feb-18 09:32N 39°27' W 000°19'0 0.0
2015-Feb-18 08:32N 39°27' W 000°19'0 0.0
2015-Feb-18 07:32N 39°27' W 000°19'0 0.0
2015-Feb-18 06:32N 39°27' W 000°19'0 0.0
2015-Feb-18 05:32N 39°27' W 000°19'0 0.0
2015-Feb-18 04:32N 39°27' W 000°19'0 0.0
2015-Feb-18 03:29N 39°27' W 000°19'0 0.0
2015-Feb-18 02:32N 39°27' W 000°19'0 0.0
2015-Feb-18 01:29N 39°27' W 000°19'0 0.0
2015-Feb-18 00:29N 39°27' W 000°19'0 0.0
2015-Feb-17 23:32N 39°27' W 000°19'0 0.0
2015-Feb-17 22:32N 39°27' W 000°19'0 0.0
2015-Feb-17 21:32N 39°27' W 000°19'0 0.0
2015-Feb-17 20:32N 39°27' W 000°19'0 0.0
2015-Feb-17 19:32N 39°27' W 000°19'0 0.0
2015-Feb-17 17:32N 39°27' W 000°19'0 0.0
2015-Feb-17 16:32N 39°27' W 000°19'0 0.0
2015-Feb-17 15:32N 39°27' W 000°19'0 0.0
2015-Feb-17 14:32N 39°27' W 000°19'0 0.0
2015-Feb-17 13:32N 39°27' W 000°19'0 0.0
2015-Feb-17 12:32N 39°27' W 000°19'0 0.0
2015-Feb-17 11:32N 39°27' W 000°19'0 0.0
2015-Feb-17 10:32N 39°27' W 000°19'0 0.0
2015-Feb-17 09:32N 39°27' W 000°19'0 0.0
2015-Feb-17 08:32N 39°27' W 000°19'0 0.0
2015-Feb-17 07:32N 39°27' W 000°19'0 0.0
2015-Feb-17 06:33N 39°27' W 000°19'0 0.0
2015-Feb-17 05:33N 39°27' W 000°19'0 0.0
2015-Feb-17 04:33N 39°27' W 000°19'0 0.0
2015-Feb-17 03:33N 39°27' W 000°19'0 0.0
2015-Feb-17 02:33N 39°27' W 000°19'0 0.0
2015-Feb-17 01:33N 39°27' W 000°19'0 0.0
2015-Feb-17 00:28N 39°27' W 000°19'0 0.5
2015-Feb-16 23:33N 39°26' W 000°19'1 0.5
2015-Feb-16 22:33N 39°26' W 000°20'0 0.0
2015-Feb-16 21:33N 39°26' W 000°20'0 0.0
2015-Feb-16 20:33N 39°26' W 000°20'0 0.0
2015-Feb-16 19:33N 39°26' W 000°20'0 0.0
2015-Feb-16 18:30N 39°26' W 000°20'0 0.0
2015-Feb-16 17:30N 39°26' W 000°20'0 0.0
2015-Feb-16 16:33N 39°26' W 000°20'0 0.0
2015-Feb-16 15:33N 39°26' W 000°20'0 0.0
2015-Feb-16 14:33N 39°26' W 000°20'0 0.0
2015-Feb-16 13:33N 39°26' W 000°20'0 0.0
2015-Feb-16 12:33N 39°26' W 000°20'0 0.0
2015-Feb-16 11:32N 39°26' W 000°20'0 0.0
2015-Feb-16 10:32N 39°26' W 000°20'0 0.0
2015-Feb-16 09:32N 39°26' W 000°20'0 0.0
2015-Feb-16 08:32N 39°26' W 000°20'0 0.0
2015-Feb-16 07:31N 39°26' W 000°20'0 0.0
2015-Feb-16 06:32N 39°26' W 000°20'0 0.0
2015-Feb-16 05:32N 39°26' W 000°20'0 0.0
2015-Feb-16 04:34N 39°26' W 000°20'0 0.0
2015-Feb-16 03:33N 39°26' W 000°20'0 0.0
2015-Feb-16 02:34N 39°26' W 000°20'0 0.0
2015-Feb-16 01:34N 39°26' W 000°20'0 0.0
2015-Feb-16 00:31N 39°26' W 000°20'0 0.0
2015-Feb-15 23:33N 39°26' W 000°20'0 0.0
2015-Feb-15 22:32N 39°26' W 000°20'0 0.0
2015-Feb-15 21:29N 39°26' W 000°20'0 0.0
2015-Feb-15 20:29N 39°26' W 000°20'0 0.0
2015-Feb-15 19:33N 39°26' W 000°20'10 8.8
2015-Feb-15 18:22N 39°25' W 000°06'4 2.1
2015-Feb-15 16:33N 39°25' W 000°02'1 0.7
2015-Feb-15 15:33N 39°24' W 000°02'3 0.7
2015-Feb-15 11:33N 39°22' W 000°05'  
2015-Feb-12 14:30N 36°46' E 003°04'0 0.0
2015-Feb-12 13:33N 36°46' E 003°04'0 0.0
2015-Feb-12 10:24N 36°46' E 003°04'0 0.0
2015-Feb-12 09:30N 36°46' E 003°04'0 0.0
2015-Feb-11 21:07N 36°46' E 003°04'0 0.0
2015-Feb-10 20:13N 36°46' E 003°04'  

Dump ship's entire track history